sensor_id;sensor_type;location;lat;lon;timestamp;P1;durP1;ratioP1;P2;durP2;ratioP2
48861;SDS011;34681;49.188;-0.374;2023-04-01T00:00:08;15.43;;;4.67;;
48861;SDS011;34681;49.188;-0.374;2023-04-01T00:02:34;15.73;;;4.23;;
48861;SDS011;34681;49.188;-0.374;2023-04-01T00:05:00;12.43;;;5.27;;
48861;SDS011;34681;49.188;-0.374;2023-04-01T00:07:26;12.60;;;4.13;;
48861;SDS011;34681;49.188;-0.374;2023-04-01T00:09:51;13.33;;;4.37;;
48861;SDS011;34681;49.188;-0.374;2023-04-01T00:12:17;18.53;;;5.17;;
48861;SDS011;34681;49.188;-0.374;2023-04-01T00:14:42;19.53;;;5.20;;
48861;SDS011;34681;49.188;-0.374;2023-04-01T00:17:07;11.80;;;3.77;;
48861;SDS011;34681;49.188;-0.374;2023-04-01T00:19:33;13.93;;;5.70;;
48861;SDS011;34681;49.188;-0.374;2023-04-01T00:21:58;13.60;;;4.10;;
48861;SDS011;34681;49.188;-0.374;2023-04-01T00:24:23;11.87;;;4.20;;
48861;SDS011;34681;49.188;-0.374;2023-04-01T00:26:49;18.53;;;5.27;;
48861;SDS011;34681;49.188;-0.374;2023-04-01T00:29:14;13.33;;;3.60;;
48861;SDS011;34681;49.188;-0.374;2023-04-01T00:31:40;13.93;;;4.20;;
48861;SDS011;34681;49.188;-0.374;2023-04-01T00:34:05;11.53;;;4.00;;
48861;SDS011;34681;49.188;-0.374;2023-04-01T00:36:30;10.90;;;3.93;;
48861;SDS011;34681;49.188;-0.374;2023-04-01T00:38:57;19.90;;;4.10;;
48861;SDS011;34681;49.188;-0.374;2023-04-01T00:41:23;13.97;;;4.77;;
48861;SDS011;34681;49.188;-0.374;2023-04-01T00:43:51;14.60;;;3.77;;
48861;SDS011;34681;49.188;-0.374;2023-04-01T00:46:16;14.03;;;3.83;;
48861;SDS011;34681;49.188;-0.374;2023-04-01T00:48:49;12.07;;;4.07;;
48861;SDS011;34681;49.188;-0.374;2023-04-01T00:51:20;17.90;;;3.73;;
48861;SDS011;34681;49.188;-0.374;2023-04-01T00:53:50;13.83;;;3.13;;
48861;SDS011;34681;49.188;-0.374;2023-04-01T00:56:39;15.30;;;3.73;;
48861;SDS011;34681;49.188;-0.374;2023-04-01T00:59:07;9.50;;;3.80;;
48861;SDS011;34681;49.188;-0.374;2023-04-01T01:01:36;15.00;;;3.70;;
48861;SDS011;34681;49.188;-0.374;2023-04-01T01:04:02;13.47;;;4.30;;
48861;SDS011;34681;49.188;-0.374;2023-04-01T01:06:39;13.23;;;4.00;;
48861;SDS011;34681;49.188;-0.374;2023-04-01T01:09:31;17.50;;;3.40;;
48861;SDS011;34681;49.188;-0.374;2023-04-01T01:22:52;17.23;;;3.83;;
48861;SDS011;34681;49.188;-0.374;2023-04-01T01:25:43;17.67;;;4.40;;
48861;SDS011;34681;49.188;-0.374;2023-04-01T01:28:28;12.83;;;4.07;;
48861;SDS011;34681;49.188;-0.374;2023-04-01T01:31:34;11.80;;;3.10;;
48861;SDS011;34681;49.188;-0.374;2023-04-01T01:34:22;15.87;;;4.70;;
48861;SDS011;34681;49.188;-0.374;2023-04-01T01:36:50;10.60;;;3.20;;
48861;SDS011;34681;49.188;-0.374;2023-04-01T01:39:23;12.77;;;3.33;;
48861;SDS011;34681;49.188;-0.374;2023-04-01T01:41:55;19.10;;;4.67;;
48861;SDS011;34681;49.188;-0.374;2023-04-01T01:44:23;14.47;;;4.23;;
48861;SDS011;34681;49.188;-0.374;2023-04-01T01:46:52;11.73;;;3.30;;
48861;SDS011;34681;49.188;-0.374;2023-04-01T01:49:18;15.23;;;4.60;;
48861;SDS011;34681;49.188;-0.374;2023-04-01T01:51:45;14.40;;;4.83;;
48861;SDS011;34681;49.188;-0.374;2023-04-01T01:54:14;13.03;;;3.90;;
48861;SDS011;34681;49.188;-0.374;2023-04-01T01:56:41;16.03;;;5.77;;
48861;SDS011;34681;49.188;-0.374;2023-04-01T01:59:08;15.83;;;4.33;;
48861;SDS011;34681;49.188;-0.374;2023-04-01T02:01:36;14.73;;;3.33;;
48861;SDS011;34681;49.188;-0.374;2023-04-01T02:04:05;18.70;;;4.17;;
48861;SDS011;34681;49.188;-0.374;2023-04-01T02:06:32;13.53;;;3.10;;
48861;SDS011;34681;49.188;-0.374;2023-04-01T02:09:02;12.07;;;4.00;;
48861;SDS011;34681;49.188;-0.374;2023-04-01T02:14:04;9.73;;;3.37;;
48861;SDS011;34681;49.188;-0.374;2023-04-01T02:16:40;16.10;;;4.57;;
48861;SDS011;34681;49.188;-0.374;2023-04-01T02:19:10;17.43;;;5.30;;
48861;SDS011;34681;49.188;-0.374;2023-04-01T02:21:38;11.73;;;4.07;;
48861;SDS011;34681;49.188;-0.374;2023-04-01T02:24:08;15.90;;;4.30;;
48861;SDS011;34681;49.188;-0.374;2023-04-01T02:26:39;10.97;;;3.70;;
48861;SDS011;34681;49.188;-0.374;2023-04-01T02:29:06;14.30;;;4.30;;
48861;SDS011;34681;49.188;-0.374;2023-04-01T02:31:36;12.40;;;3.73;;
48861;SDS011;34681;49.188;-0.374;2023-04-01T02:34:02;18.73;;;3.80;;
48861;SDS011;34681;49.188;-0.374;2023-04-01T02:36:28;14.97;;;4.17;;
48861;SDS011;34681;49.188;-0.374;2023-04-01T02:38:53;13.40;;;4.10;;
48861;SDS011;34681;49.188;-0.374;2023-04-01T02:41:20;17.93;;;4.57;;
48861;SDS011;34681;49.188;-0.374;2023-04-01T02:43:46;17.00;;;4.10;;
48861;SDS011;34681;49.188;-0.374;2023-04-01T02:46:11;14.43;;;3.87;;
48861;SDS011;34681;49.188;-0.374;2023-04-01T02:48:36;20.20;;;5.20;;
48861;SDS011;34681;49.188;-0.374;2023-04-01T02:51:02;15.23;;;4.30;;
48861;SDS011;34681;49.188;-0.374;2023-04-01T02:53:28;15.50;;;3.80;;
48861;SDS011;34681;49.188;-0.374;2023-04-01T02:55:54;17.40;;;3.67;;
48861;SDS011;34681;49.188;-0.374;2023-04-01T02:58:20;13.07;;;4.03;;
48861;SDS011;34681;49.188;-0.374;2023-04-01T03:00:46;18.80;;;4.80;;
48861;SDS011;34681;49.188;-0.374;2023-04-01T03:03:11;15.93;;;3.90;;
48861;SDS011;34681;49.188;-0.374;2023-04-01T03:05:38;11.03;;;3.97;;
48861;SDS011;34681;49.188;-0.374;2023-04-01T03:08:03;14.37;;;4.30;;
48861;SDS011;34681;49.188;-0.374;2023-04-01T03:10:29;12.60;;;4.07;;
48861;SDS011;34681;49.188;-0.374;2023-04-01T03:12:54;13.33;;;4.17;;
48861;SDS011;34681;49.188;-0.374;2023-04-01T03:15:20;14.10;;;3.57;;
48861;SDS011;34681;49.188;-0.374;2023-04-01T03:17:45;15.57;;;3.43;;
48861;SDS011;34681;49.188;-0.374;2023-04-01T03:20:11;11.00;;;3.50;;
48861;SDS011;34681;49.188;-0.374;2023-04-01T03:22:37;17.07;;;3.87;;
48861;SDS011;34681;49.188;-0.374;2023-04-01T03:25:03;12.23;;;3.60;;
48861;SDS011;34681;49.188;-0.374;2023-04-01T03:27:30;10.50;;;3.30;;
48861;SDS011;34681;49.188;-0.374;2023-04-01T03:29:55;16.43;;;3.67;;
48861;SDS011;34681;49.188;-0.374;2023-04-01T03:32:21;16.90;;;3.67;;
48861;SDS011;34681;49.188;-0.374;2023-04-01T03:34:46;7.57;;;3.50;;
48861;SDS011;34681;49.188;-0.374;2023-04-01T03:37:12;12.63;;;3.77;;
48861;SDS011;34681;49.188;-0.374;2023-04-01T03:39:38;10.83;;;3.00;;
48861;SDS011;34681;49.188;-0.374;2023-04-01T03:42:04;13.43;;;3.83;;
48861;SDS011;34681;49.188;-0.374;2023-04-01T03:44:31;9.13;;;3.07;;
48861;SDS011;34681;49.188;-0.374;2023-04-01T03:46:58;11.50;;;3.53;;
48861;SDS011;34681;49.188;-0.374;2023-04-01T03:49:23;6.33;;;2.87;;
48861;SDS011;34681;49.188;-0.374;2023-04-01T03:51:48;14.73;;;4.00;;
48861;SDS011;34681;49.188;-0.374;2023-04-01T03:54:14;12.67;;;3.80;;
48861;SDS011;34681;49.188;-0.374;2023-04-01T03:56:39;13.23;;;3.40;;
48861;SDS011;34681;49.188;-0.374;2023-04-01T03:59:05;18.13;;;5.23;;
48861;SDS011;34681;49.188;-0.374;2023-04-01T04:01:32;15.60;;;3.27;;
48861;SDS011;34681;49.188;-0.374;2023-04-01T04:03:58;13.37;;;3.83;;
48861;SDS011;34681;49.188;-0.374;2023-04-01T04:06:24;13.30;;;4.20;;
48861;SDS011;34681;49.188;-0.374;2023-04-01T04:08:50;14.60;;;4.07;;
48861;SDS011;34681;49.188;-0.374;2023-04-01T04:11:16;17.93;;;4.70;;
48861;SDS011;34681;49.188;-0.374;2023-04-01T04:13:41;9.80;;;3.70;;
48861;SDS011;34681;49.188;-0.374;2023-04-01T04:16:07;10.03;;;3.67;;
48861;SDS011;34681;49.188;-0.374;2023-04-01T04:18:33;15.40;;;3.90;;
48861;SDS011;34681;49.188;-0.374;2023-04-01T04:20:59;14.80;;;3.73;;
48861;SDS011;34681;49.188;-0.374;2023-04-01T04:23:24;17.10;;;3.93;;
48861;SDS011;34681;49.188;-0.374;2023-04-01T04:26:09;14.60;;;5.00;;
48861;SDS011;34681;49.188;-0.374;2023-04-01T04:28:36;11.27;;;3.90;;
48861;SDS011;34681;49.188;-0.374;2023-04-01T04:31:02;19.60;;;4.23;;
48861;SDS011;34681;49.188;-0.374;2023-04-01T04:33:29;11.23;;;3.57;;
48861;SDS011;34681;49.188;-0.374;2023-04-01T04:35:56;12.43;;;4.33;;
48861;SDS011;34681;49.188;-0.374;2023-04-01T04:38:22;16.93;;;4.80;;
48861;SDS011;34681;49.188;-0.374;2023-04-01T04:40:47;19.13;;;4.07;;
48861;SDS011;34681;49.188;-0.374;2023-04-01T04:43:13;17.50;;;3.73;;
48861;SDS011;34681;49.188;-0.374;2023-04-01T04:45:41;15.47;;;4.23;;
48861;SDS011;34681;49.188;-0.374;2023-04-01T04:48:07;9.60;;;3.37;;
48861;SDS011;34681;49.188;-0.374;2023-04-01T04:50:34;13.60;;;4.53;;
48861;SDS011;34681;49.188;-0.374;2023-04-01T04:52:59;17.93;;;4.70;;
48861;SDS011;34681;49.188;-0.374;2023-04-01T04:55:25;11.17;;;3.47;;
48861;SDS011;34681;49.188;-0.374;2023-04-01T04:57:50;18.23;;;3.90;;
48861;SDS011;34681;49.188;-0.374;2023-04-01T05:00:16;12.57;;;3.73;;
48861;SDS011;34681;49.188;-0.374;2023-04-01T05:02:41;14.53;;;4.27;;
48861;SDS011;34681;49.188;-0.374;2023-04-01T05:05:07;12.53;;;3.20;;
48861;SDS011;34681;49.188;-0.374;2023-04-01T05:07:33;22.07;;;4.97;;
48861;SDS011;34681;49.188;-0.374;2023-04-01T05:09:58;13.13;;;3.87;;
48861;SDS011;34681;49.188;-0.374;2023-04-01T05:12:24;11.77;;;3.07;;
48861;SDS011;34681;49.188;-0.374;2023-04-01T05:14:49;11.33;;;4.30;;
48861;SDS011;34681;49.188;-0.374;2023-04-01T05:17:14;8.53;;;3.20;;
48861;SDS011;34681;49.188;-0.374;2023-04-01T05:19:40;11.00;;;4.13;;
48861;SDS011;34681;49.188;-0.374;2023-04-01T05:22:05;15.23;;;3.67;;
48861;SDS011;34681;49.188;-0.374;2023-04-01T05:24:31;14.03;;;4.50;;
48861;SDS011;34681;49.188;-0.374;2023-04-01T05:26:57;8.70;;;3.17;;
48861;SDS011;34681;49.188;-0.374;2023-04-01T05:29:24;16.10;;;4.93;;
48861;SDS011;34681;49.188;-0.374;2023-04-01T05:31:50;11.23;;;3.23;;
48861;SDS011;34681;49.188;-0.374;2023-04-01T05:34:15;12.00;;;3.27;;
48861;SDS011;34681;49.188;-0.374;2023-04-01T05:36:41;11.63;;;3.40;;
48861;SDS011;34681;49.188;-0.374;2023-04-01T05:39:08;13.17;;;3.40;;
48861;SDS011;34681;49.188;-0.374;2023-04-01T05:41:37;7.60;;;4.40;;
48861;SDS011;34681;49.188;-0.374;2023-04-01T05:44:03;17.87;;;4.07;;
48861;SDS011;34681;49.188;-0.374;2023-04-01T05:46:29;13.70;;;3.90;;
48861;SDS011;34681;49.188;-0.374;2023-04-01T05:48:55;14.17;;;3.17;;
48861;SDS011;34681;49.188;-0.374;2023-04-01T05:51:20;19.83;;;3.87;;
48861;SDS011;34681;49.188;-0.374;2023-04-01T05:53:45;11.07;;;3.60;;
48861;SDS011;34681;49.188;-0.374;2023-04-01T05:56:11;12.40;;;4.00;;
48861;SDS011;34681;49.188;-0.374;2023-04-01T05:58:38;18.47;;;4.37;;
48861;SDS011;34681;49.188;-0.374;2023-04-01T06:01:10;15.30;;;3.60;;
48861;SDS011;34681;49.188;-0.374;2023-04-01T06:03:36;16.30;;;3.33;;
48861;SDS011;34681;49.188;-0.374;2023-04-01T06:06:01;9.60;;;3.70;;
48861;SDS011;34681;49.188;-0.374;2023-04-01T06:08:28;11.50;;;4.10;;
48861;SDS011;34681;49.188;-0.374;2023-04-01T06:19:20;17.80;;;4.07;;
48861;SDS011;34681;49.188;-0.374;2023-04-01T06:29:52;16.60;;;3.87;;
48861;SDS011;34681;49.188;-0.374;2023-04-01T06:46:41;12.60;;;3.90;;
48861;SDS011;34681;49.188;-0.374;2023-04-01T06:54:24;18.20;;;5.30;;
48861;SDS011;34681;49.188;-0.374;2023-04-01T06:56:57;12.67;;;3.20;;
48861;SDS011;34681;49.188;-0.374;2023-04-01T06:59:28;8.70;;;3.33;;
48861;SDS011;34681;49.188;-0.374;2023-04-01T07:01:58;14.40;;;3.80;;
48861;SDS011;34681;49.188;-0.374;2023-04-01T07:04:27;15.83;;;3.70;;
48861;SDS011;34681;49.188;-0.374;2023-04-01T07:07:01;21.23;;;3.73;;
48861;SDS011;34681;49.188;-0.374;2023-04-01T07:09:33;12.57;;;4.00;;
48861;SDS011;34681;49.188;-0.374;2023-04-01T07:12:09;16.47;;;3.43;;
48861;SDS011;34681;49.188;-0.374;2023-04-01T07:14:41;8.97;;;3.47;;
48861;SDS011;34681;49.188;-0.374;2023-04-01T07:17:17;11.23;;;3.57;;
48861;SDS011;34681;49.188;-0.374;2023-04-01T07:22:21;9.97;;;3.63;;
48861;SDS011;34681;49.188;-0.374;2023-04-01T07:24:56;11.03;;;3.30;;
48861;SDS011;34681;49.188;-0.374;2023-04-01T07:27:26;7.80;;;2.80;;
48861;SDS011;34681;49.188;-0.374;2023-04-01T07:29:51;5.40;;;2.07;;
48861;SDS011;34681;49.188;-0.374;2023-04-01T07:37:33;6.77;;;2.97;;
48861;SDS011;34681;49.188;-0.374;2023-04-01T07:40:21;6.80;;;2.63;;
48861;SDS011;34681;49.188;-0.374;2023-04-01T07:43:01;8.63;;;3.30;;
48861;SDS011;34681;49.188;-0.374;2023-04-01T07:45:43;8.97;;;3.20;;
48861;SDS011;34681;49.188;-0.374;2023-04-01T07:48:28;6.80;;;2.50;;
48861;SDS011;34681;49.188;-0.374;2023-04-01T07:56:38;6.70;;;2.83;;
48861;SDS011;34681;49.188;-0.374;2023-04-01T08:05:12;7.10;;;2.83;;
48861;SDS011;34681;49.188;-0.374;2023-04-01T08:07:43;5.83;;;2.30;;
48861;SDS011;34681;49.188;-0.374;2023-04-01T08:10:24;4.60;;;2.27;;
48861;SDS011;34681;49.188;-0.374;2023-04-01T08:16:03;9.23;;;3.17;;
48861;SDS011;34681;49.188;-0.374;2023-04-01T08:21:01;5.93;;;2.27;;
48861;SDS011;34681;49.188;-0.374;2023-04-01T08:23:36;5.57;;;2.70;;
48861;SDS011;34681;49.188;-0.374;2023-04-01T08:34:24;5.80;;;2.80;;
48861;SDS011;34681;49.188;-0.374;2023-04-01T08:36:57;5.50;;;2.30;;
48861;SDS011;34681;49.188;-0.374;2023-04-01T08:39:30;6.80;;;2.03;;
48861;SDS011;34681;49.188;-0.374;2023-04-01T08:45:03;6.03;;;2.97;;
48861;SDS011;34681;49.188;-0.374;2023-04-01T08:47:42;5.83;;;2.50;;
48861;SDS011;34681;49.188;-0.374;2023-04-01T08:56:17;5.43;;;2.10;;
48861;SDS011;34681;49.188;-0.374;2023-04-01T09:24:23;4.20;;;2.30;;
48861;SDS011;34681;49.188;-0.374;2023-04-01T09:30:01;5.00;;;2.47;;
48861;SDS011;34681;49.188;-0.374;2023-04-01T09:35:42;9.23;;;2.30;;
48861;SDS011;34681;49.188;-0.374;2023-04-01T09:38:22;4.00;;;2.10;;
48861;SDS011;34681;49.188;-0.374;2023-04-01T09:40:58;5.27;;;2.70;;
48861;SDS011;34681;49.188;-0.374;2023-04-01T09:43:27;7.20;;;2.27;;
48861;SDS011;34681;49.188;-0.374;2023-04-01T09:46:14;6.23;;;2.90;;
48861;SDS011;34681;49.188;-0.374;2023-04-01T09:48:53;6.47;;;2.60;;
48861;SDS011;34681;49.188;-0.374;2023-04-01T09:51:51;7.27;;;2.10;;
48861;SDS011;34681;49.188;-0.374;2023-04-01T10:06:03;6.47;;;2.40;;
48861;SDS011;34681;49.188;-0.374;2023-04-01T10:17:27;3.53;;;1.93;;
48861;SDS011;34681;49.188;-0.374;2023-04-01T10:23:27;6.60;;;2.40;;
48861;SDS011;34681;49.188;-0.374;2023-04-01T10:36:54;5.07;;;2.07;;
48861;SDS011;34681;49.188;-0.374;2023-04-01T11:01:40;2.63;;;1.70;;
48861;SDS011;34681;49.188;-0.374;2023-04-01T11:07:37;2.80;;;1.93;;
48861;SDS011;34681;49.188;-0.374;2023-04-01T11:13:02;5.53;;;2.60;;
48861;SDS011;34681;49.188;-0.374;2023-04-01T11:40:19;4.73;;;1.87;;
48861;SDS011;34681;49.188;-0.374;2023-04-01T11:48:44;5.83;;;2.40;;
48861;SDS011;34681;49.188;-0.374;2023-04-01T12:20:51;5.50;;;1.30;;
48861;SDS011;34681;49.188;-0.374;2023-04-01T12:29:04;2.70;;;1.53;;
48861;SDS011;34681;49.188;-0.374;2023-04-01T12:37:18;2.00;;;1.80;;
48861;SDS011;34681;49.188;-0.374;2023-04-01T12:40:01;5.93;;;2.70;;
48861;SDS011;34681;49.188;-0.374;2023-04-01T12:48:06;2.77;;;1.53;;
48861;SDS011;34681;49.188;-0.374;2023-04-01T12:50:50;5.73;;;2.10;;
48861;SDS011;34681;49.188;-0.374;2023-04-01T13:18:18;4.03;;;2.00;;
48861;SDS011;34681;49.188;-0.374;2023-04-01T13:26:30;3.27;;;1.90;;
48861;SDS011;34681;49.188;-0.374;2023-04-01T13:29:14;3.87;;;1.53;;
48861;SDS011;34681;49.188;-0.374;2023-04-01T13:32:31;8.00;;;1.67;;
48861;SDS011;34681;49.188;-0.374;2023-04-01T13:34:55;8.20;;;1.73;;
48861;SDS011;34681;49.188;-0.374;2023-04-01T13:48:50;6.60;;;2.70;;
48861;SDS011;34681;49.188;-0.374;2023-04-01T13:51:23;4.57;;;1.60;;
48861;SDS011;34681;49.188;-0.374;2023-04-01T13:54:04;4.17;;;1.00;;
48861;SDS011;34681;49.188;-0.374;2023-04-01T13:56:43;4.00;;;1.50;;
48861;SDS011;34681;49.188;-0.374;2023-04-01T13:59:44;4.30;;;1.40;;
48861;SDS011;34681;49.188;-0.374;2023-04-01T14:10:30;7.20;;;2.17;;
48861;SDS011;34681;49.188;-0.374;2023-04-01T14:30:12;5.60;;;2.47;;
48861;SDS011;34681;49.188;-0.374;2023-04-01T14:41:19;2.90;;;1.53;;
48861;SDS011;34681;49.188;-0.374;2023-04-01T14:49:51;3.63;;;2.07;;
48861;SDS011;34681;49.188;-0.374;2023-04-01T14:52:27;4.50;;;2.00;;
48861;SDS011;34681;49.188;-0.374;2023-04-01T14:54:55;3.83;;;1.80;;
48861;SDS011;34681;49.188;-0.374;2023-04-01T14:57:24;7.40;;;1.97;;
48861;SDS011;34681;49.188;-0.374;2023-04-01T14:59:53;7.00;;;2.23;;
48861;SDS011;34681;49.188;-0.374;2023-04-01T15:13:19;1.90;;;1.07;;
48861;SDS011;34681;49.188;-0.374;2023-04-01T15:21:27;1.47;;;1.27;;
48861;SDS011;34681;49.188;-0.374;2023-04-01T15:32:29;2.40;;;2.10;;
48861;SDS011;34681;49.188;-0.374;2023-04-01T15:34:59;2.67;;;2.13;;
48861;SDS011;34681;49.188;-0.374;2023-04-01T15:37:35;1.80;;;1.70;;
48861;SDS011;34681;49.188;-0.374;2023-04-01T15:45:55;5.17;;;1.60;;
48861;SDS011;34681;49.188;-0.374;2023-04-01T15:54:17;4.87;;;2.13;;
48861;SDS011;34681;49.188;-0.374;2023-04-01T16:02:39;4.47;;;1.90;;
48861;SDS011;34681;49.188;-0.374;2023-04-01T16:27:40;4.00;;;2.53;;
48861;SDS011;34681;49.188;-0.374;2023-04-01T16:36:07;9.33;;;2.10;;
48861;SDS011;34681;49.188;-0.374;2023-04-01T16:38:43;7.47;;;2.80;;
48861;SDS011;34681;49.188;-0.374;2023-04-01T16:41:34;5.13;;;2.53;;
48861;SDS011;34681;49.188;-0.374;2023-04-01T16:44:22;7.33;;;2.60;;
48861;SDS011;34681;49.188;-0.374;2023-04-01T16:46:53;4.17;;;2.30;;
48861;SDS011;34681;49.188;-0.374;2023-04-01T16:54:35;6.77;;;2.80;;
48861;SDS011;34681;49.188;-0.374;2023-04-01T16:59:38;9.33;;;3.47;;
48861;SDS011;34681;49.188;-0.374;2023-04-01T17:04:48;9.23;;;2.73;;
48861;SDS011;34681;49.188;-0.374;2023-04-01T17:23:13;12.40;;;3.53;;
48861;SDS011;34681;49.188;-0.374;2023-04-01T17:39:14;10.03;;;3.13;;
48861;SDS011;34681;49.188;-0.374;2023-04-01T17:42:30;8.33;;;3.00;;
48861;SDS011;34681;49.188;-0.374;2023-04-01T17:55:55;7.97;;;2.50;;
48861;SDS011;34681;49.188;-0.374;2023-04-01T18:01:14;3.97;;;3.10;;
48861;SDS011;34681;49.188;-0.374;2023-04-01T18:06:47;6.10;;;2.83;;
48861;SDS011;34681;49.188;-0.374;2023-04-01T18:12:23;11.73;;;3.73;;
48861;SDS011;34681;49.188;-0.374;2023-04-01T18:20:15;5.70;;;4.23;;
48861;SDS011;34681;49.188;-0.374;2023-04-01T18:22:54;5.73;;;3.20;;
48861;SDS011;34681;49.188;-0.374;2023-04-01T18:30:31;5.70;;;2.03;;
48861;SDS011;34681;49.188;-0.374;2023-04-01T18:38:39;9.10;;;2.40;;
48861;SDS011;34681;49.188;-0.374;2023-04-01T18:41:15;4.20;;;2.07;;
48861;SDS011;34681;49.188;-0.374;2023-04-01T18:46:54;10.30;;;3.43;;
48861;SDS011;34681;49.188;-0.374;2023-04-01T18:57:41;16.00;;;3.10;;
48861;SDS011;34681;49.188;-0.374;2023-04-01T19:00:22;10.33;;;7.10;;
48861;SDS011;34681;49.188;-0.374;2023-04-01T19:03:23;11.37;;;7.00;;
48861;SDS011;34681;49.188;-0.374;2023-04-01T19:05:58;6.57;;;2.80;;
48861;SDS011;34681;49.188;-0.374;2023-04-01T19:08:34;9.70;;;2.90;;
48861;SDS011;34681;49.188;-0.374;2023-04-01T19:14:06;8.60;;;2.60;;
48861;SDS011;34681;49.188;-0.374;2023-04-01T19:16:49;9.90;;;3.77;;
48861;SDS011;34681;49.188;-0.374;2023-04-01T19:27:57;7.53;;;3.13;;
48861;SDS011;34681;49.188;-0.374;2023-04-01T19:36:13;6.93;;;2.43;;
48861;SDS011;34681;49.188;-0.374;2023-04-01T19:39:27;4.70;;;2.30;;
48861;SDS011;34681;49.188;-0.374;2023-04-01T19:44:33;10.67;;;3.00;;
48861;SDS011;34681;49.188;-0.374;2023-04-01T19:47:35;6.27;;;2.67;;
48861;SDS011;34681;49.188;-0.374;2023-04-01T19:52:54;6.10;;;3.50;;
48861;SDS011;34681;49.188;-0.374;2023-04-01T19:58:05;3.90;;;2.40;;
48861;SDS011;34681;49.188;-0.374;2023-04-01T20:00:37;4.37;;;2.27;;
48861;SDS011;34681;49.188;-0.374;2023-04-01T20:05:48;5.27;;;2.20;;
48861;SDS011;34681;49.188;-0.374;2023-04-01T20:19:21;4.70;;;3.90;;
48861;SDS011;34681;49.188;-0.374;2023-04-01T20:21:52;9.33;;;2.67;;
48861;SDS011;34681;49.188;-0.374;2023-04-01T20:29:41;4.53;;;3.20;;
48861;SDS011;34681;49.188;-0.374;2023-04-01T20:34:50;4.70;;;2.73;;
48861;SDS011;34681;49.188;-0.374;2023-04-01T20:46:27;3.73;;;2.40;;
48861;SDS011;34681;49.188;-0.374;2023-04-01T20:51:25;3.30;;;2.60;;
48861;SDS011;34681;49.188;-0.374;2023-04-01T21:07:54;2.87;;;2.40;;
48861;SDS011;34681;49.188;-0.374;2023-04-01T21:16:23;4.23;;;2.30;;
48861;SDS011;34681;49.188;-0.374;2023-04-01T21:29:51;7.53;;;2.80;;
48861;SDS011;34681;49.188;-0.374;2023-04-01T21:52:02;5.57;;;3.50;;
48861;SDS011;34681;49.188;-0.374;2023-04-01T22:06:10;3.37;;;3.10;;
48861;SDS011;34681;49.188;-0.374;2023-04-01T22:08:53;6.40;;;3.20;;
48861;SDS011;34681;49.188;-0.374;2023-04-01T22:14:20;3.60;;;2.93;;
48861;SDS011;34681;49.188;-0.374;2023-04-01T22:19:44;4.13;;;3.40;;
48861;SDS011;34681;49.188;-0.374;2023-04-01T22:25:11;5.63;;;3.60;;
48861;SDS011;34681;49.188;-0.374;2023-04-01T22:27:43;6.80;;;3.70;;
48861;SDS011;34681;49.188;-0.374;2023-04-01T22:30:22;4.60;;;3.90;;
48861;SDS011;34681;49.188;-0.374;2023-04-01T22:32:56;4.20;;;3.87;;
48861;SDS011;34681;49.188;-0.374;2023-04-01T22:35:38;3.70;;;3.40;;
48861;SDS011;34681;49.188;-0.374;2023-04-01T22:43:38;4.57;;;4.07;;
48861;SDS011;34681;49.188;-0.374;2023-04-01T22:48:41;7.03;;;4.60;;
48861;SDS011;34681;49.188;-0.374;2023-04-01T22:51:15;4.63;;;4.23;;
48861;SDS011;34681;49.188;-0.374;2023-04-01T22:56:12;6.63;;;4.93;;
48861;SDS011;34681;49.188;-0.374;2023-04-01T22:58:54;5.50;;;4.33;;
48861;SDS011;34681;49.188;-0.374;2023-04-01T23:01:25;8.47;;;4.20;;
48861;SDS011;34681;49.188;-0.374;2023-04-01T23:03:57;6.03;;;4.50;;
48861;SDS011;34681;49.188;-0.374;2023-04-01T23:06:26;4.30;;;3.90;;
48861;SDS011;34681;49.188;-0.374;2023-04-01T23:11:46;4.37;;;3.97;;
48861;SDS011;34681;49.188;-0.374;2023-04-01T23:16:56;8.13;;;3.87;;
48861;SDS011;34681;49.188;-0.374;2023-04-01T23:19:29;7.57;;;4.17;;
48861;SDS011;34681;49.188;-0.374;2023-04-01T23:24:50;4.37;;;4.00;;
48861;SDS011;34681;49.188;-0.374;2023-04-01T23:29:53;4.63;;;4.30;;
48861;SDS011;34681;49.188;-0.374;2023-04-01T23:32:18;7.03;;;4.30;;
48861;SDS011;34681;49.188;-0.374;2023-04-01T23:34:51;7.40;;;3.80;;
48861;SDS011;34681;49.188;-0.374;2023-04-01T23:37:19;6.00;;;4.20;;
48861;SDS011;34681;49.188;-0.374;2023-04-01T23:39:46;5.30;;;4.80;;
48861;SDS011;34681;49.188;-0.374;2023-04-01T23:44:40;6.83;;;3.60;;
48861;SDS011;34681;49.188;-0.374;2023-04-01T23:47:08;6.63;;;3.80;;
48861;SDS011;34681;49.188;-0.374;2023-04-01T23:49:40;4.27;;;3.97;;
48861;SDS011;34681;49.188;-0.374;2023-04-01T23:52:14;5.40;;;4.03;;
48861;SDS011;34681;49.188;-0.374;2023-04-01T23:57:39;7.23;;;4.70;;
